sensor_id;sensor_type;location;lat;lon;timestamp;pressure;altitude;pressure_sealevel;temperature;humidity
34983;BME280;21187;50.976;13.720;2023-03-16T00:02:28;98724.69;;;2.62;53.16
34983;BME280;21187;50.976;13.720;2023-03-16T00:07:30;98718.66;;;2.51;53.31
34983;BME280;21187;50.976;13.720;2023-03-16T00:12:32;98718.44;;;2.42;53.73
34983;BME280;21187;50.976;13.720;2023-03-16T00:17:35;98718.75;;;2.41;53.64
34983;BME280;21187;50.976;13.720;2023-03-16T00:22:37;98725.72;;;2.37;53.78
34983;BME280;21187;50.976;13.720;2023-03-16T00:27:39;98726.56;;;2.32;53.83
34983;BME280;21187;50.976;13.720;2023-03-16T00:32:42;98732.53;;;2.24;54.12
34983;BME280;21187;50.976;13.720;2023-03-16T00:37:43;98728.03;;;2.19;54.52
34983;BME280;21187;50.976;13.720;2023-03-16T00:42:45;98732.88;;;2.12;54.70
34983;BME280;21187;50.976;13.720;2023-03-16T00:47:48;98731.06;;;2.07;54.96
34983;BME280;21187;50.976;13.720;2023-03-16T00:52:49;98736.63;;;2.11;54.86
34983;BME280;21187;50.976;13.720;2023-03-16T00:57:54;98743.25;;;2.19;54.73
34983;BME280;21187;50.976;13.720;2023-03-16T01:02:56;98736.25;;;2.23;54.38
34983;BME280;21187;50.976;13.720;2023-03-16T01:07:58;98737.44;;;2.11;54.73
34983;BME280;21187;50.976;13.720;2023-03-16T01:13:03;98748.72;;;2.03;55.40
34983;BME280;21187;50.976;13.720;2023-03-16T01:18:05;98752.47;;;2.02;55.33
34983;BME280;21187;50.976;13.720;2023-03-16T01:23:07;98758.31;;;2.04;55.32
34983;BME280;21187;50.976;13.720;2023-03-16T01:28:09;98763.13;;;2.07;55.10
34983;BME280;21187;50.976;13.720;2023-03-16T01:33:11;98770.28;;;2.12;55.01
34983;BME280;21187;50.976;13.720;2023-03-16T01:38:13;98765.44;;;2.19;54.45
34983;BME280;21187;50.976;13.720;2023-03-16T01:43:22;98769.41;;;2.22;54.38
34983;BME280;21187;50.976;13.720;2023-03-16T01:48:25;98768.66;;;1.76;55.67
34983;BME280;21187;50.976;13.720;2023-03-16T01:53:28;98772.50;;;2.05;55.18
34983;BME280;21187;50.976;13.720;2023-03-16T01:58:30;98773.66;;;2.28;54.15
34983;BME280;21187;50.976;13.720;2023-03-16T02:03:33;98763.97;;;2.32;54.04
34983;BME280;21187;50.976;13.720;2023-03-16T02:08:46;98760.81;;;2.30;53.56
34983;BME280;21187;50.976;13.720;2023-03-16T02:13:50;98772.75;;;2.03;54.41
34983;BME280;21187;50.976;13.720;2023-03-16T02:18:54;98767.84;;;2.21;53.79
34983;BME280;21187;50.976;13.720;2023-03-16T02:23:56;98775.59;;;2.17;54.00
34983;BME280;21187;50.976;13.720;2023-03-16T02:29:13;98766.22;;;2.20;53.67
34983;BME280;21187;50.976;13.720;2023-03-16T02:34:20;98770.53;;;2.15;53.60
34983;BME280;21187;50.976;13.720;2023-03-16T02:39:22;98766.56;;;2.13;54.04
34983;BME280;21187;50.976;13.720;2023-03-16T02:44:27;98767.41;;;2.03;53.95
34983;BME280;21187;50.976;13.720;2023-03-16T02:49:39;98769.56;;;2.01;54.07
34983;BME280;21187;50.976;13.720;2023-03-16T02:54:42;98784.25;;;2.04;53.87
34983;BME280;21187;50.976;13.720;2023-03-16T02:59:44;98778.34;;;2.07;53.79
34983;BME280;21187;50.976;13.720;2023-03-16T03:04:46;98778.88;;;2.09;53.92
34983;BME280;21187;50.976;13.720;2023-03-16T03:09:48;98779.16;;;2.07;53.64
34983;BME280;21187;50.976;13.720;2023-03-16T03:14:50;98784.22;;;2.09;53.64
34983;BME280;21187;50.976;13.720;2023-03-16T03:19:58;98771.97;;;2.03;53.51
34983;BME280;21187;50.976;13.720;2023-03-16T03:25:00;98784.59;;;1.92;54.04
34983;BME280;21187;50.976;13.720;2023-03-16T03:30:05;98792.03;;;1.50;55.33
34983;BME280;21187;50.976;13.720;2023-03-16T03:35:07;98789.38;;;1.95;53.82
34983;BME280;21187;50.976;13.720;2023-03-16T03:40:15;98790.94;;;2.01;53.99
34983;BME280;21187;50.976;13.720;2023-03-16T03:45:20;98799.00;;;1.96;54.02
34983;BME280;21187;50.976;13.720;2023-03-16T03:50:22;98805.38;;;2.00;53.84
34983;BME280;21187;50.976;13.720;2023-03-16T03:55:31;98802.19;;;1.98;54.29
34983;BME280;21187;50.976;13.720;2023-03-16T04:00:34;98806.22;;;1.95;54.02
34983;BME280;21187;50.976;13.720;2023-03-16T04:05:36;98814.50;;;1.89;54.35
34983;BME280;21187;50.976;13.720;2023-03-16T04:10:38;98810.78;;;1.90;53.90
34983;BME280;21187;50.976;13.720;2023-03-16T04:15:40;98808.69;;;1.81;54.30
34983;BME280;21187;50.976;13.720;2023-03-16T04:20:51;98804.94;;;1.82;54.21
34983;BME280;21187;50.976;13.720;2023-03-16T04:25:58;98806.56;;;1.83;54.32
34983;BME280;21187;50.976;13.720;2023-03-16T04:31:02;98804.69;;;1.79;54.01
34983;BME280;21187;50.976;13.720;2023-03-16T04:36:09;98808.16;;;1.79;54.04
34983;BME280;21187;50.976;13.720;2023-03-16T04:41:13;98799.66;;;1.72;54.71
34983;BME280;21187;50.976;13.720;2023-03-16T04:46:27;98806.03;;;1.76;54.68
34983;BME280;21187;50.976;13.720;2023-03-16T04:51:32;98794.00;;;1.79;54.23
34983;BME280;21187;50.976;13.720;2023-03-16T04:56:41;98799.34;;;1.79;54.40
34983;BME280;21187;50.976;13.720;2023-03-16T05:02:02;98803.38;;;1.76;54.35
34983;BME280;21187;50.976;13.720;2023-03-16T05:07:05;98796.72;;;1.74;54.43
34983;BME280;21187;50.976;13.720;2023-03-16T05:12:11;98806.03;;;1.76;54.30
34983;BME280;21187;50.976;13.720;2023-03-16T05:17:14;98803.34;;;1.81;54.30
34983;BME280;21187;50.976;13.720;2023-03-16T05:22:18;98801.22;;;1.83;54.41
34983;BME280;21187;50.976;13.720;2023-03-16T05:27:52;98804.69;;;1.84;54.55
34983;BME280;21187;50.976;13.720;2023-03-16T05:33:16;98811.59;;;1.90;54.15
34983;BME280;21187;50.976;13.720;2023-03-16T05:38:24;98808.31;;;2.04;53.92
34983;BME280;21187;50.976;13.720;2023-03-16T05:43:27;98807.38;;;2.19;53.79
34983;BME280;21187;50.976;13.720;2023-03-16T05:48:33;98805.19;;;2.31;53.51
34983;BME280;21187;50.976;13.720;2023-03-16T05:53:37;98811.53;;;2.40;53.53
34983;BME280;21187;50.976;13.720;2023-03-16T05:58:46;98820.09;;;1.92;55.58
34983;BME280;21187;50.976;13.720;2023-03-16T06:03:49;98821.53;;;2.59;53.98
34983;BME280;21187;50.976;13.720;2023-03-16T06:08:56;98818.28;;;2.91;53.29
34983;BME280;21187;50.976;13.720;2023-03-16T06:14:00;98822.59;;;3.11;53.47
34983;BME280;21187;50.976;13.720;2023-03-16T06:19:02;98819.66;;;3.37;53.21
34983;BME280;21187;50.976;13.720;2023-03-16T06:24:06;98831.16;;;3.62;53.39
34983;BME280;21187;50.976;13.720;2023-03-16T06:29:10;98825.44;;;3.88;52.66
34983;BME280;21187;50.976;13.720;2023-03-16T06:34:13;98830.47;;;4.13;53.29
34983;BME280;21187;50.976;13.720;2023-03-16T06:39:17;98833.56;;;4.40;53.05
34983;BME280;21187;50.976;13.720;2023-03-16T06:44:22;98832.75;;;4.72;53.07
34983;BME280;21187;50.976;13.720;2023-03-16T06:49:32;98832.94;;;5.09;52.61
34983;BME280;21187;50.976;13.720;2023-03-16T06:54:35;98837.53;;;5.36;52.22
34983;BME280;21187;50.976;13.720;2023-03-16T06:59:39;98837.00;;;5.62;51.75
34983;BME280;21187;50.976;13.720;2023-03-16T07:04:42;98842.66;;;5.88;52.12
34983;BME280;21187;50.976;13.720;2023-03-16T07:09:44;98840.63;;;6.22;51.58
34983;BME280;21187;50.976;13.720;2023-03-16T07:14:46;98839.78;;;6.35;51.18
34983;BME280;21187;50.976;13.720;2023-03-16T07:19:55;98847.84;;;6.58;50.92
34983;BME280;21187;50.976;13.720;2023-03-16T07:24:57;98852.13;;;6.81;50.65
34983;BME280;21187;50.976;13.720;2023-03-16T07:30:03;98849.88;;;7.06;50.67
34983;BME280;21187;50.976;13.720;2023-03-16T07:35:08;98852.97;;;7.31;50.43
34983;BME280;21187;50.976;13.720;2023-03-16T07:40:13;98850.56;;;7.61;49.73
34983;BME280;21187;50.976;13.720;2023-03-16T07:45:15;98844.59;;;7.81;49.82
34983;BME280;21187;50.976;13.720;2023-03-16T07:50:19;98845.25;;;8.13;49.96
34983;BME280;21187;50.976;13.720;2023-03-16T07:55:23;98843.03;;;8.15;48.39
34983;BME280;21187;50.976;13.720;2023-03-16T08:00:26;98853.50;;;8.08;48.26
34983;BME280;21187;50.976;13.720;2023-03-16T08:05:29;98848.75;;;8.23;48.20
34983;BME280;21187;50.976;13.720;2023-03-16T08:10:35;98858.59;;;8.54;48.16
34983;BME280;21187;50.976;13.720;2023-03-16T08:15:49;98847.59;;;8.94;47.83
34983;BME280;21187;50.976;13.720;2023-03-16T08:21:10;98856.72;;;9.19;47.47
34983;BME280;21187;50.976;13.720;2023-03-16T08:26:12;98853.97;;;9.37;47.28
34983;BME280;21187;50.976;13.720;2023-03-16T08:31:14;98860.28;;;9.49;46.42
34983;BME280;21187;50.976;13.720;2023-03-16T08:36:22;98867.97;;;9.69;45.46
34983;BME280;21187;50.976;13.720;2023-03-16T08:41:27;98878.94;;;9.72;45.17
34983;BME280;21187;50.976;13.720;2023-03-16T08:46:35;98875.59;;;9.75;44.83
34983;BME280;21187;50.976;13.720;2023-03-16T08:51:37;98878.19;;;9.93;45.04
34983;BME280;21187;50.976;13.720;2023-03-16T08:56:39;98879.13;;;10.18;45.00
34983;BME280;21187;50.976;13.720;2023-03-16T09:01:41;98877.34;;;10.22;45.16
34983;BME280;21187;50.976;13.720;2023-03-16T09:06:44;98878.06;;;10.40;44.80
34983;BME280;21187;50.976;13.720;2023-03-16T09:11:48;98883.13;;;10.42;44.73
34983;BME280;21187;50.976;13.720;2023-03-16T09:16:50;98884.38;;;10.65;44.30
34983;BME280;21187;50.976;13.720;2023-03-16T09:21:52;98882.41;;;10.87;44.13
34983;BME280;21187;50.976;13.720;2023-03-16T09:26:54;98875.94;;;10.79;43.72
34983;BME280;21187;50.976;13.720;2023-03-16T09:31:56;98881.75;;;10.90;44.04
34983;BME280;21187;50.976;13.720;2023-03-16T09:36:58;98887.53;;;11.01;44.14
34983;BME280;21187;50.976;13.720;2023-03-16T09:47:11;98879.38;;;10.89;41.87
34983;BME280;21187;50.976;13.720;2023-03-16T09:57:38;98873.81;;;11.31;41.99
34983;BME280;21187;50.976;13.720;2023-03-16T10:08:23;98869.53;;;11.42;40.73
34983;BME280;21187;50.976;13.720;2023-03-16T10:18:43;98873.59;;;11.36;40.61
34983;BME280;21187;50.976;13.720;2023-03-16T10:23:47;98866.38;;;11.40;40.65
34983;BME280;21187;50.976;13.720;2023-03-16T10:28:51;98870.88;;;11.61;40.68
34983;BME280;21187;50.976;13.720;2023-03-16T10:34:03;98874.69;;;11.10;40.42
34983;BME280;21187;50.976;13.720;2023-03-16T10:39:12;98873.72;;;11.40;40.17
34983;BME280;21187;50.976;13.720;2023-03-16T10:44:21;98863.22;;;11.63;39.24
34983;BME280;21187;50.976;13.720;2023-03-16T10:49:24;98874.72;;;11.47;38.74
34983;BME280;21187;50.976;13.720;2023-03-16T10:54:37;98863.09;;;11.72;38.45
34983;BME280;21187;50.976;13.720;2023-03-16T10:59:48;98856.53;;;11.85;37.46
34983;BME280;21187;50.976;13.720;2023-03-16T11:04:50;98857.31;;;11.98;36.99
34983;BME280;21187;50.976;13.720;2023-03-16T11:09:54;98851.31;;;12.05;37.23
34983;BME280;21187;50.976;13.720;2023-03-16T11:15:12;98856.66;;;12.01;36.58
34983;BME280;21187;50.976;13.720;2023-03-16T11:20:27;98849.16;;;12.10;36.61
34983;BME280;21187;50.976;13.720;2023-03-16T11:25:39;98828.75;;;12.29;35.85
34983;BME280;21187;50.976;13.720;2023-03-16T11:36:34;98815.38;;;12.80;36.22
34983;BME280;21187;50.976;13.720;2023-03-16T11:47:27;98814.47;;;12.32;33.80
34983;BME280;21187;50.976;13.720;2023-03-16T12:03:38;98800.19;;;12.07;33.29
34983;BME280;21187;50.976;13.720;2023-03-16T12:19:03;98784.91;;;12.14;33.17
34983;BME280;21187;50.976;13.720;2023-03-16T12:24:23;98779.06;;;12.57;33.63
34983;BME280;21187;50.976;13.720;2023-03-16T12:35:07;98768.97;;;12.57;32.84
34983;BME280;21187;50.976;13.720;2023-03-16T12:45:38;98768.47;;;12.84;32.49
34983;BME280;21187;50.976;13.720;2023-03-16T12:50:51;98760.41;;;12.87;32.14
34983;BME280;21187;50.976;13.720;2023-03-16T12:55:55;98753.50;;;12.90;31.17
34983;BME280;21187;50.976;13.720;2023-03-16T13:00:58;98743.94;;;13.12;31.10
34983;BME280;21187;50.976;13.720;2023-03-16T13:06:01;98746.00;;;13.35;30.55
34983;BME280;21187;50.976;13.720;2023-03-16T13:11:11;98742.00;;;13.64;30.50
34983;BME280;21187;50.976;13.720;2023-03-16T13:16:29;98733.00;;;13.79;30.70
34983;BME280;21187;50.976;13.720;2023-03-16T13:21:36;98731.41;;;13.78;29.73
34983;BME280;21187;50.976;13.720;2023-03-16T13:26:47;98735.16;;;13.90;28.99
34983;BME280;21187;50.976;13.720;2023-03-16T13:31:50;98722.25;;;13.87;29.57
34983;BME280;21187;50.976;13.720;2023-03-16T13:36:54;98731.56;;;13.86;29.31
34983;BME280;21187;50.976;13.720;2023-03-16T13:47:04;98719.66;;;13.74;29.54
34983;BME280;21187;50.976;13.720;2023-03-16T13:52:12;98725.97;;;13.78;30.06
34983;BME280;21187;50.976;13.720;2023-03-16T13:57:17;98709.19;;;13.57;29.56
34983;BME280;21187;50.976;13.720;2023-03-16T14:02:20;98704.59;;;13.41;29.95
34983;BME280;21187;50.976;13.720;2023-03-16T14:07:23;98692.00;;;13.53;29.68
34983;BME280;21187;50.976;13.720;2023-03-16T14:12:26;98693.56;;;13.54;29.98
34983;BME280;21187;50.976;13.720;2023-03-16T14:17:28;98689.78;;;13.58;30.34
34983;BME280;21187;50.976;13.720;2023-03-16T14:22:36;98693.09;;;13.68;30.21
34983;BME280;21187;50.976;13.720;2023-03-16T14:32:40;98680.97;;;13.45;29.95
34983;BME280;21187;50.976;13.720;2023-03-16T14:37:42;98680.47;;;13.24;29.76
34983;BME280;21187;50.976;13.720;2023-03-16T14:42:45;98679.81;;;12.95;30.14
34983;BME280;21187;50.976;13.720;2023-03-16T14:47:48;98682.09;;;12.93;30.18
34983;BME280;21187;50.976;13.720;2023-03-16T14:52:54;98687.97;;;12.95;30.44
34983;BME280;21187;50.976;13.720;2023-03-16T14:57:56;98683.88;;;12.69;30.84
34983;BME280;21187;50.976;13.720;2023-03-16T15:03:08;98677.03;;;12.43;31.16
34983;BME280;21187;50.976;13.720;2023-03-16T15:08:16;98681.22;;;12.25;31.76
34983;BME280;21187;50.976;13.720;2023-03-16T15:13:21;98678.38;;;12.05;32.28
34983;BME280;21187;50.976;13.720;2023-03-16T15:18:37;98671.44;;;11.79;32.64
34983;BME280;21187;50.976;13.720;2023-03-16T15:23:41;98659.19;;;11.57;33.01
34983;BME280;21187;50.976;13.720;2023-03-16T15:28:44;98672.00;;;11.44;33.51
34983;BME280;21187;50.976;13.720;2023-03-16T15:33:46;98669.09;;;11.25;33.55
34983;BME280;21187;50.976;13.720;2023-03-16T15:38:51;98659.63;;;10.94;34.10
34983;BME280;21187;50.976;13.720;2023-03-16T15:43:54;98668.25;;;10.84;34.26
34983;BME280;21187;50.976;13.720;2023-03-16T15:49:01;98660.78;;;10.68;34.41
34983;BME280;21187;50.976;13.720;2023-03-16T15:54:05;98648.25;;;10.51;34.70
34983;BME280;21187;50.976;13.720;2023-03-16T15:59:11;98635.34;;;10.36;34.55
34983;BME280;21187;50.976;13.720;2023-03-16T16:04:20;98638.91;;;9.81;35.83
34983;BME280;21187;50.976;13.720;2023-03-16T16:09:23;98648.00;;;9.98;35.35
34983;BME280;21187;50.976;13.720;2023-03-16T16:14:25;98657.09;;;9.93;35.31
34983;BME280;21187;50.976;13.720;2023-03-16T16:19:27;98658.53;;;9.78;36.01
34983;BME280;21187;50.976;13.720;2023-03-16T16:24:30;98659.41;;;9.70;36.06
34983;BME280;21187;50.976;13.720;2023-03-16T16:29:34;98660.59;;;9.60;36.31
34983;BME280;21187;50.976;13.720;2023-03-16T16:34:36;98669.41;;;9.48;36.20
34983;BME280;21187;50.976;13.720;2023-03-16T16:39:38;98679.19;;;9.41;36.96
34983;BME280;21187;50.976;13.720;2023-03-16T16:44:41;98667.03;;;9.26;36.90
34983;BME280;21187;50.976;13.720;2023-03-16T16:49:44;98675.09;;;9.13;37.02
34983;BME280;21187;50.976;13.720;2023-03-16T16:54:46;98671.75;;;9.08;36.99
34983;BME280;21187;50.976;13.720;2023-03-16T16:59:48;98659.44;;;8.98;37.10
34983;BME280;21187;50.976;13.720;2023-03-16T17:04:50;98654.41;;;8.88;36.98
34983;BME280;21187;50.976;13.720;2023-03-16T17:09:52;98650.63;;;8.80;37.25
34983;BME280;21187;50.976;13.720;2023-03-16T17:14:54;98662.75;;;8.74;37.87
34983;BME280;21187;50.976;13.720;2023-03-16T17:19:56;98657.84;;;8.67;37.58
34983;BME280;21187;50.976;13.720;2023-03-16T17:24:57;98648.34;;;8.61;37.78
34983;BME280;21187;50.976;13.720;2023-03-16T17:30:00;98651.88;;;8.53;37.69
34983;BME280;21187;50.976;13.720;2023-03-16T17:35:12;98654.56;;;8.44;37.97
34983;BME280;21187;50.976;13.720;2023-03-16T17:40:20;98657.59;;;8.42;37.98
34983;BME280;21187;50.976;13.720;2023-03-16T17:45:25;98651.72;;;8.40;37.70
34983;BME280;21187;50.976;13.720;2023-03-16T17:50:30;98646.66;;;8.30;37.49
34983;BME280;21187;50.976;13.720;2023-03-16T17:55:35;98629.41;;;8.22;37.85
34983;BME280;21187;50.976;13.720;2023-03-16T18:00:41;98628.16;;;8.20;37.91
34983;BME280;21187;50.976;13.720;2023-03-16T18:05:48;98618.63;;;8.13;38.02
34983;BME280;21187;50.976;13.720;2023-03-16T18:11:01;98619.91;;;8.07;38.15
34983;BME280;21187;50.976;13.720;2023-03-16T18:16:06;98615.84;;;8.01;38.52
34983;BME280;21187;50.976;13.720;2023-03-16T18:21:19;98612.38;;;7.92;38.42
34983;BME280;21187;50.976;13.720;2023-03-16T18:26:22;98605.06;;;7.83;38.67
34983;BME280;21187;50.976;13.720;2023-03-16T18:31:26;98600.31;;;7.80;38.78
34983;BME280;21187;50.976;13.720;2023-03-16T18:36:31;98598.44;;;7.72;38.71
34983;BME280;21187;50.976;13.720;2023-03-16T18:41:34;98600.97;;;7.69;38.81
34983;BME280;21187;50.976;13.720;2023-03-16T18:46:36;98605.09;;;7.66;38.53
34983;BME280;21187;50.976;13.720;2023-03-16T18:51:41;98604.16;;;7.62;39.21
34983;BME280;21187;50.976;13.720;2023-03-16T18:56:43;98588.63;;;7.59;39.11
34983;BME280;21187;50.976;13.720;2023-03-16T19:01:46;98582.47;;;7.23;39.82
34983;BME280;21187;50.976;13.720;2023-03-16T19:06:50;98584.19;;;7.45;39.38
34983;BME280;21187;50.976;13.720;2023-03-16T19:11:54;98593.41;;;7.44;39.41
34983;BME280;21187;50.976;13.720;2023-03-16T19:16:56;98587.69;;;7.37;39.45
34983;BME280;21187;50.976;13.720;2023-03-16T19:22:06;98592.59;;;7.18;40.11
34983;BME280;21187;50.976;13.720;2023-03-16T19:27:20;98584.19;;;7.19;40.19
34983;BME280;21187;50.976;13.720;2023-03-16T19:32:23;98574.38;;;7.14;39.82
34983;BME280;21187;50.976;13.720;2023-03-16T19:37:25;98577.22;;;7.09;39.80
34983;BME280;21187;50.976;13.720;2023-03-16T19:42:31;98556.94;;;7.03;40.42
34983;BME280;21187;50.976;13.720;2023-03-16T19:47:38;98562.31;;;7.03;40.06
34983;BME280;21187;50.976;13.720;2023-03-16T19:52:40;98554.72;;;7.05;40.64
34983;BME280;21187;50.976;13.720;2023-03-16T19:57:43;98562.31;;;7.03;40.14
34983;BME280;21187;50.976;13.720;2023-03-16T20:02:46;98568.84;;;7.02;40.16
34983;BME280;21187;50.976;13.720;2023-03-16T20:07:49;98565.00;;;7.03;40.32
34983;BME280;21187;50.976;13.720;2023-03-16T20:12:56;98553.47;;;7.11;40.07
34983;BME280;21187;50.976;13.720;2023-03-16T20:17:59;98572.00;;;7.13;40.25
34983;BME280;21187;50.976;13.720;2023-03-16T20:23:00;98559.81;;;7.15;39.94
34983;BME280;21187;50.976;13.720;2023-03-16T20:28:08;98553.44;;;7.20;40.12
34983;BME280;21187;50.976;13.720;2023-03-16T20:33:23;98553.13;;;7.22;40.41
34983;BME280;21187;50.976;13.720;2023-03-16T20:38:25;98557.41;;;7.23;39.83
34983;BME280;21187;50.976;13.720;2023-03-16T20:43:29;98549.34;;;7.23;39.80
34983;BME280;21187;50.976;13.720;2023-03-16T20:48:32;98561.06;;;7.27;39.71
34983;BME280;21187;50.976;13.720;2023-03-16T20:53:34;98554.72;;;7.23;39.93
34983;BME280;21187;50.976;13.720;2023-03-16T20:58:36;98537.44;;;7.15;39.97
34983;BME280;21187;50.976;13.720;2023-03-16T21:03:38;98536.97;;;7.04;40.15
34983;BME280;21187;50.976;13.720;2023-03-16T21:08:40;98541.72;;;6.90;40.38
34983;BME280;21187;50.976;13.720;2023-03-16T21:13:42;98528.44;;;7.11;39.74
34983;BME280;21187;50.976;13.720;2023-03-16T21:18:44;98523.19;;;7.23;39.51
34983;BME280;21187;50.976;13.720;2023-03-16T21:23:46;98500.22;;;7.26;39.68
34983;BME280;21187;50.976;13.720;2023-03-16T21:28:54;98500.22;;;7.26;39.58
34983;BME280;21187;50.976;13.720;2023-03-16T21:33:58;98503.38;;;7.28;39.01
34983;BME280;21187;50.976;13.720;2023-03-16T21:39:04;98501.16;;;7.30;39.01
34983;BME280;21187;50.976;13.720;2023-03-16T21:44:06;98495.94;;;7.25;39.27
34983;BME280;21187;50.976;13.720;2023-03-16T21:49:10;98493.44;;;7.02;39.61
34983;BME280;21187;50.976;13.720;2023-03-16T21:54:13;98494.69;;;7.13;39.13
34983;BME280;21187;50.976;13.720;2023-03-16T21:59:15;98497.38;;;7.13;39.06
34983;BME280;21187;50.976;13.720;2023-03-16T22:04:17;98500.72;;;6.84;39.45
34983;BME280;21187;50.976;13.720;2023-03-16T22:09:20;98501.03;;;7.00;39.51
34983;BME280;21187;50.976;13.720;2023-03-16T22:14:23;98501.97;;;7.13;39.11
34983;BME280;21187;50.976;13.720;2023-03-16T22:19:25;98481.25;;;6.78;39.84
34983;BME280;21187;50.976;13.720;2023-03-16T22:24:28;98473.00;;;6.66;39.80
34983;BME280;21187;50.976;13.720;2023-03-16T22:29:31;98465.41;;;6.68;39.70
34983;BME280;21187;50.976;13.720;2023-03-16T22:39:47;98444.34;;;6.61;39.76
34983;BME280;21187;50.976;13.720;2023-03-16T22:44:50;98440.69;;;6.66;39.67
34983;BME280;21187;50.976;13.720;2023-03-16T22:49:52;98437.53;;;6.64;39.70
34983;BME280;21187;50.976;13.720;2023-03-16T22:54:56;98429.94;;;6.66;39.31
34983;BME280;21187;50.976;13.720;2023-03-16T22:59:59;98423.75;;;6.74;39.36
34983;BME280;21187;50.976;13.720;2023-03-16T23:05:19;98417.59;;;6.82;39.33
34983;BME280;21187;50.976;13.720;2023-03-16T23:10:23;98422.97;;;6.65;39.43
34983;BME280;21187;50.976;13.720;2023-03-16T23:15:28;98412.19;;;6.82;39.10
34983;BME280;21187;50.976;13.720;2023-03-16T23:20:31;98413.44;;;6.94;38.79
34983;BME280;21187;50.976;13.720;2023-03-16T23:25:33;98416.63;;;6.96;38.91
34983;BME280;21187;50.976;13.720;2023-03-16T23:30:35;98433.72;;;7.00;38.58
34983;BME280;21187;50.976;13.720;2023-03-16T23:35:38;98422.28;;;7.03;38.71
34983;BME280;21187;50.976;13.720;2023-03-16T23:40:41;98428.00;;;7.10;38.23
34983;BME280;21187;50.976;13.720;2023-03-16T23:45:44;98423.59;;;6.79;38.83
34983;BME280;21187;50.976;13.720;2023-03-16T23:50:49;98414.19;;;7.12;38.16
34983;BME280;21187;50.976;13.720;2023-03-16T23:55:52;98410.53;;;7.16;37.96
